createdAt,value
2022-09-16T00:00:03.737Z,25.72
2022-09-16T00:02:53.701Z,25.72
2022-09-16T00:05:44.196Z,25.73
2022-09-16T00:08:32.923Z,25.71
2022-09-16T00:11:21.457Z,25.74
2022-09-16T00:14:10.818Z,25.72
2022-09-16T00:16:59.289Z,25.76
2022-09-16T00:19:47.804Z,25.76
2022-09-16T00:22:37.528Z,25.79
2022-09-16T00:25:26.045Z,25.77
2022-09-16T00:28:14.525Z,25.76
2022-09-16T00:31:03.562Z,25.73
2022-09-16T00:33:51.983Z,25.71
2022-09-16T00:36:40.385Z,25.71
2022-09-16T00:39:30.542Z,25.71
2022-09-16T00:42:19.534Z,25.69
2022-09-16T00:45:15.351Z,25.69
2022-09-16T00:48:07.112Z,25.68
2022-09-16T00:50:58.297Z,25.68
2022-09-16T00:53:52.058Z,25.67
2022-09-16T00:56:43.596Z,25.68
2022-09-16T00:59:34.679Z,25.66
2022-09-16T01:02:25.121Z,25.68
2022-09-16T01:05:16.126Z,25.68
2022-09-16T01:08:04.987Z,25.68
2022-09-16T01:10:54.074Z,25.69
2022-09-16T01:13:44.988Z,25.72
2022-09-16T01:16:37.183Z,25.72
2022-09-16T01:19:39.755Z,25.72
2022-09-16T01:22:43.774Z,25.69
2022-09-16T01:25:39.689Z,25.68
2022-09-16T01:28:41.899Z,25.69
2022-09-16T01:31:35.000Z,25.66
2022-09-16T01:34:27.388Z,25.63
2022-09-16T01:37:21.849Z,25.63
2022-09-16T01:40:15.261Z,25.63
2022-09-16T01:43:11.090Z,25.64
2022-09-16T01:46:03.566Z,25.64
2022-09-16T01:48:59.793Z,25.64
2022-09-16T01:51:52.665Z,25.63
2022-09-16T01:54:44.880Z,25.68
2022-09-16T01:57:36.627Z,25.65
2022-09-16T02:00:25.157Z,25.68
2022-09-16T02:03:15.248Z,25.69
2022-09-16T02:06:07.794Z,25.69
2022-09-16T02:08:57.854Z,25.71
2022-09-16T02:11:49.166Z,25.69
2022-09-16T02:14:42.075Z,25.71
2022-09-16T02:17:32.403Z,25.73
2022-09-16T02:20:24.973Z,25.72
2022-09-16T02:23:17.695Z,25.72
2022-09-16T02:26:08.082Z,25.70
2022-09-16T02:28:57.542Z,25.69
2022-09-16T02:31:46.400Z,25.67
2022-09-16T02:34:38.370Z,25.68
2022-09-16T02:37:31.121Z,25.67
2022-09-16T02:40:24.450Z,25.70
2022-09-16T02:43:15.214Z,25.69
2022-09-16T02:46:11.003Z,25.68
2022-09-16T02:49:05.847Z,25.66
2022-09-16T02:52:00.135Z,25.65
2022-09-16T02:54:51.734Z,25.63
2022-09-16T02:57:43.367Z,25.63
2022-09-16T03:00:34.041Z,25.62
2022-09-16T03:03:22.848Z,25.64
2022-09-16T03:06:22.439Z,25.65
2022-09-16T03:09:15.212Z,25.64
2022-09-16T03:12:34.367Z,25.64
2022-09-16T03:15:30.473Z,25.65
2022-09-16T03:18:40.128Z,25.62
2022-09-16T03:21:33.610Z,25.64
2022-09-16T03:24:30.039Z,25.63
2022-09-16T03:27:21.069Z,25.66
2022-09-16T03:30:11.724Z,25.63
2022-09-16T03:33:04.283Z,25.64
2022-09-16T03:35:54.276Z,25.61
2022-09-16T03:38:43.765Z,25.63
2022-09-16T03:41:34.717Z,25.61
2022-09-16T03:44:23.162Z,25.62
2022-09-16T03:47:11.665Z,25.61
2022-09-16T03:50:01.460Z,25.60
2022-09-16T03:52:49.886Z,25.61
2022-09-16T03:55:38.337Z,25.60
2022-09-16T03:58:28.407Z,25.61
2022-09-16T04:01:16.981Z,25.60
2022-09-16T04:04:05.459Z,25.59
2022-09-16T04:06:55.389Z,25.61
2022-09-16T04:09:43.882Z,25.62
2022-09-16T04:12:32.343Z,25.61
2022-09-16T04:15:20.792Z,25.59
2022-09-16T04:18:09.531Z,25.62
2022-09-16T04:20:58.837Z,25.62
2022-09-16T04:23:48.773Z,25.64
2022-09-16T04:26:37.263Z,25.64
2022-09-16T04:29:25.746Z,25.69
2022-09-16T04:32:14.198Z,25.69
2022-09-16T04:35:02.820Z,25.72
2022-09-16T04:37:51.359Z,25.73
2022-09-16T04:40:41.115Z,25.73
2022-09-16T04:43:32.295Z,25.72
2022-09-16T04:46:20.866Z,25.77
2022-09-16T04:49:09.355Z,25.80
2022-09-16T04:51:57.928Z,25.76
2022-09-16T04:54:46.322Z,25.72
2022-09-16T04:57:36.218Z,25.70
2022-09-16T05:00:24.695Z,25.71
2022-09-16T05:03:13.118Z,25.74
2022-09-16T05:06:09.239Z,25.74
2022-09-16T05:09:00.299Z,25.71
2022-09-16T05:11:48.715Z,25.72
2022-09-16T05:14:38.420Z,25.72
2022-09-16T05:17:49.780Z,25.71
2022-09-16T05:20:37.605Z,25.70
2022-09-16T05:23:26.052Z,25.73
2022-09-16T05:26:16.532Z,25.71
2022-09-16T05:29:07.490Z,25.70
2022-09-16T05:31:58.007Z,25.71
2022-09-16T05:34:46.478Z,25.69
2022-09-16T05:37:34.996Z,25.68
2022-09-16T05:40:24.025Z,25.66
2022-09-16T05:43:12.583Z,25.66
2022-09-16T05:46:01.341Z,25.67
2022-09-16T05:48:51.532Z,25.68
2022-09-16T05:51:41.535Z,25.70
2022-09-16T05:54:31.430Z,25.66
2022-09-16T05:57:21.593Z,25.70
2022-09-16T06:00:12.601Z,25.69
2022-09-16T06:03:00.987Z,25.65
2022-09-16T06:05:50.852Z,25.68
2022-09-16T06:08:39.429Z,25.62
2022-09-16T06:11:29.292Z,25.63
2022-09-16T06:14:18.473Z,25.64
2022-09-16T06:17:07.081Z,25.65
2022-09-16T06:19:55.541Z,25.64
2022-09-16T06:22:45.499Z,25.63
2022-09-16T06:25:34.155Z,25.63
2022-09-16T06:28:24.880Z,25.65
2022-09-16T06:31:16.000Z,25.64
2022-09-16T06:34:05.326Z,25.65
2022-09-16T06:36:53.711Z,25.63
2022-09-16T06:39:43.727Z,25.62
2022-09-16T06:42:32.182Z,25.62
2022-09-16T06:45:20.555Z,25.58
2022-09-16T06:48:09.028Z,25.58
2022-09-16T06:51:00.995Z,25.58
2022-09-16T06:53:49.974Z,25.58
2022-09-16T06:56:41.441Z,25.55
2022-09-16T06:59:30.170Z,25.58
2022-09-16T07:02:18.961Z,25.56
2022-09-16T07:05:08.518Z,25.57
2022-09-16T07:07:56.999Z,25.58
2022-09-16T07:10:45.482Z,25.58
2022-09-16T07:13:35.885Z,25.57
2022-09-16T07:16:26.168Z,25.58
2022-09-16T07:19:14.814Z,25.56
2022-09-16T07:22:03.648Z,25.55
2022-09-16T07:24:53.164Z,25.54
2022-09-16T07:27:42.195Z,25.56
2022-09-16T07:30:34.281Z,25.55
2022-09-16T07:33:24.989Z,25.53
2022-09-16T07:36:15.852Z,25.51
2022-09-16T07:39:04.796Z,25.50
2022-09-16T07:41:53.212Z,25.47
2022-09-16T07:44:41.606Z,25.48
2022-09-16T07:47:32.366Z,25.47
2022-09-16T07:50:20.796Z,25.48
2022-09-16T07:53:09.184Z,25.50
2022-09-16T07:55:57.671Z,25.50
2022-09-16T07:58:46.990Z,25.50
2022-09-16T08:01:38.997Z,25.51
2022-09-16T08:04:32.685Z,25.52
2022-09-16T08:07:21.201Z,25.51
2022-09-16T08:10:10.134Z,25.51
2022-09-16T08:12:58.645Z,25.49
2022-09-16T08:15:47.420Z,25.51
2022-09-16T08:18:36.402Z,25.51
2022-09-16T08:21:27.957Z,25.52
2022-09-16T08:24:16.709Z,25.50
2022-09-16T08:27:05.387Z,25.48
2022-09-16T08:29:53.931Z,25.50
2022-09-16T08:32:42.374Z,25.48
2022-09-16T08:35:32.052Z,25.49
2022-09-16T08:38:21.832Z,25.48
2022-09-16T08:41:28.171Z,25.47
2022-09-16T08:44:22.643Z,25.50
2022-09-16T08:47:27.767Z,25.51
2022-09-16T08:50:20.358Z,25.51
2022-09-16T08:53:16.896Z,25.52
2022-09-16T08:56:09.598Z,25.50
2022-09-16T08:59:00.270Z,25.50
2022-09-16T09:01:52.021Z,25.51
2022-09-16T09:04:41.132Z,25.47
2022-09-16T09:07:41.586Z,25.48
2022-09-16T09:10:34.719Z,25.46
2022-09-16T09:13:37.200Z,25.47
2022-09-16T09:16:33.042Z,25.47
2022-09-16T09:19:28.621Z,25.49
2022-09-16T09:22:26.780Z,25.50
2022-09-16T09:25:24.109Z,25.47
2022-09-16T09:28:44.638Z,25.50
2022-09-16T09:31:41.344Z,25.48
2022-09-16T09:34:41.029Z,25.47
2022-09-16T09:37:43.153Z,25.50
2022-09-16T09:40:34.832Z,25.49
2022-09-16T09:43:30.109Z,25.48
2022-09-16T09:46:23.926Z,25.51
2022-09-16T09:49:15.362Z,25.50
2022-09-16T09:52:08.736Z,25.52
2022-09-16T09:54:57.489Z,25.50
2022-09-16T09:57:59.671Z,25.52
2022-09-16T10:00:48.493Z,25.52
2022-09-16T10:03:40.232Z,25.53
2022-09-16T10:06:31.783Z,25.55
2022-09-16T10:09:21.423Z,25.55
2022-09-16T10:12:11.741Z,25.53
2022-09-16T10:15:00.718Z,25.55
2022-09-16T10:17:50.901Z,25.55
2022-09-16T10:20:44.436Z,25.53
2022-09-16T10:23:33.544Z,25.52
2022-09-16T10:26:23.597Z,25.54
2022-09-16T10:29:18.022Z,25.55
2022-09-16T10:32:07.889Z,25.55
2022-09-16T10:34:56.449Z,25.57
2022-09-16T10:37:51.464Z,25.56
2022-09-16T10:40:41.225Z,25.59
2022-09-16T10:43:31.746Z,25.55
2022-09-16T10:46:22.894Z,25.54
2022-09-16T10:49:12.598Z,25.54
2022-09-16T10:52:10.361Z,25.56
2022-09-16T10:55:14.002Z,25.58
2022-09-16T10:58:10.203Z,25.57
2022-09-16T11:01:11.628Z,25.58
2022-09-16T11:04:23.876Z,25.56
2022-09-16T11:07:22.281Z,25.56
2022-09-16T11:10:23.277Z,25.57
2022-09-16T11:13:21.699Z,25.55
2022-09-16T11:16:24.348Z,25.55
2022-09-16T11:19:17.307Z,25.54
2022-09-16T11:22:17.787Z,25.52
2022-09-16T11:25:29.273Z,25.51
2022-09-16T11:28:42.876Z,25.52
2022-09-16T11:31:38.340Z,25.50
2022-09-16T11:34:44.496Z,25.53
2022-09-16T11:37:39.192Z,25.53
2022-09-16T11:40:41.328Z,25.56
2022-09-16T11:44:04.690Z,25.57
2022-09-16T11:47:02.315Z,25.57
2022-09-16T11:50:17.968Z,25.59
2022-09-16T11:53:44.477Z,25.58
2022-09-16T11:56:39.999Z,25.61
2022-09-16T11:59:31.883Z,25.64
2022-09-16T12:02:27.293Z,25.65
2022-09-16T12:05:20.466Z,25.66
2022-09-16T12:08:14.590Z,25.64
2022-09-16T12:11:05.771Z,25.70
2022-09-16T12:14:05.366Z,25.71
2022-09-16T12:16:58.161Z,25.71
2022-09-16T12:19:51.494Z,25.69
2022-09-16T12:22:43.583Z,25.71
2022-09-16T12:25:38.044Z,25.70
2022-09-16T12:28:31.227Z,25.77
2022-09-16T12:31:25.365Z,25.77
2022-09-16T12:34:16.545Z,25.77
2022-09-16T12:37:09.876Z,25.75
2022-09-16T12:39:58.535Z,25.77
2022-09-16T12:43:30.601Z,25.76
2022-09-16T12:46:37.229Z,25.85
2022-09-16T12:49:44.475Z,25.86
2022-09-16T12:53:07.766Z,25.87
2022-09-16T12:56:04.150Z,25.93
2022-09-16T12:59:15.851Z,25.91
2022-09-16T13:02:15.625Z,25.89
2022-09-16T13:05:14.387Z,25.88
2022-09-16T13:08:06.087Z,25.92
2022-09-16T13:11:20.922Z,25.93
2022-09-16T13:14:22.663Z,25.92
2022-09-16T13:17:13.576Z,25.94
2022-09-16T13:20:07.910Z,26.03
2022-09-16T13:23:05.485Z,26.12
2022-09-16T13:25:59.996Z,26.19
2022-09-16T13:28:48.940Z,26.14
2022-09-16T13:31:48.475Z,26.24
2022-09-16T13:34:38.411Z,26.18
2022-09-16T13:37:27.621Z,26.20
2022-09-16T13:40:21.407Z,26.25
2022-09-16T13:43:15.268Z,26.30
2022-09-16T13:46:11.621Z,26.29
2022-09-16T13:49:11.107Z,26.32
2022-09-16T13:52:00.992Z,26.37
2022-09-16T13:58:03.159Z,26.28
2022-09-16T14:01:00.403Z,26.30
2022-09-16T14:03:58.058Z,26.21
2022-09-16T14:06:53.033Z,26.21
2022-09-16T14:09:54.131Z,26.17
2022-09-16T14:12:51.497Z,26.17
2022-09-16T14:15:44.241Z,26.18
2022-09-16T14:18:34.943Z,26.20
2022-09-16T14:21:26.031Z,26.22
2022-09-16T14:24:21.378Z,26.29
2022-09-16T14:27:22.198Z,26.31
2022-09-16T14:30:20.221Z,26.30
2022-09-16T14:33:08.774Z,26.31
2022-09-16T14:35:57.709Z,26.32
2022-09-16T14:38:48.836Z,26.32
2022-09-16T14:41:39.629Z,26.36
2022-09-16T14:44:36.665Z,26.43
2022-09-16T14:47:47.471Z,26.44
2022-09-16T14:50:41.641Z,26.45
2022-09-16T14:53:36.449Z,26.44
2022-09-16T14:56:26.453Z,26.47
2022-09-16T14:59:17.318Z,26.48
2022-09-16T15:02:09.922Z,26.50
2022-09-16T15:04:59.858Z,26.49
2022-09-16T15:08:12.277Z,26.53
2022-09-16T15:10:59.048Z,26.53
2022-09-16T15:13:47.671Z,26.53
2022-09-16T15:16:41.622Z,26.55
2022-09-16T15:19:35.622Z,26.55
2022-09-16T15:22:27.049Z,26.56
2022-09-16T15:25:21.448Z,26.53
2022-09-16T15:28:17.865Z,26.55
2022-09-16T15:31:09.998Z,26.54
2022-09-16T15:34:00.163Z,26.58
2022-09-16T15:36:51.679Z,26.57
2022-09-16T15:39:40.782Z,26.65
2022-09-16T15:42:29.633Z,26.59
2022-09-16T15:45:20.786Z,26.62
2022-09-16T15:48:16.075Z,26.58
2022-09-16T15:51:07.927Z,26.54
2022-09-16T15:54:01.105Z,26.50
2022-09-16T15:56:59.005Z,26.48
2022-09-16T15:59:57.382Z,26.56
2022-09-16T16:02:49.393Z,26.63
2022-09-16T16:05:39.637Z,26.56
2022-09-16T16:08:48.394Z,26.75
2022-09-16T16:11:38.144Z,26.67
2022-09-16T16:14:32.107Z,26.79
2022-09-16T16:17:21.729Z,26.68
2022-09-16T16:20:12.091Z,26.80
2022-09-16T16:23:00.840Z,26.68
2022-09-16T16:25:49.314Z,26.65
2022-09-16T16:28:39.436Z,26.62
2022-09-16T16:31:27.940Z,26.65
2022-09-16T16:34:16.397Z,26.69
2022-09-16T16:37:05.481Z,26.75
2022-09-16T16:39:54.618Z,26.62
2022-09-16T16:42:43.540Z,26.56
2022-09-16T16:45:33.722Z,26.76
2022-09-16T16:48:22.198Z,26.76
2022-09-16T16:51:13.968Z,26.61
2022-09-16T16:54:02.410Z,26.50
2022-09-16T16:56:50.821Z,26.47
2022-09-16T16:59:39.407Z,26.43
2022-09-16T17:02:29.239Z,26.38
2022-09-16T17:05:17.726Z,26.38
2022-09-16T17:08:06.190Z,26.32
2022-09-16T17:11:06.910Z,26.17
2022-09-16T17:13:59.746Z,26.20
2022-09-16T17:16:48.370Z,26.26
2022-09-16T17:19:38.142Z,26.27
2022-09-16T17:22:28.071Z,26.33
2022-09-16T17:25:16.507Z,26.39
2022-09-16T17:28:04.957Z,26.38
2022-09-16T17:30:53.518Z,26.41
2022-09-16T17:33:41.998Z,26.45
2022-09-16T17:36:31.897Z,26.42
2022-09-16T17:39:22.119Z,26.43
2022-09-16T17:42:10.628Z,26.43
2022-09-16T17:45:00.745Z,26.43
2022-09-16T17:47:49.196Z,26.44
2022-09-16T17:50:39.499Z,26.43
2022-09-16T17:53:29.301Z,26.42
2022-09-16T17:56:18.344Z,26.47
2022-09-16T17:59:08.824Z,26.47
2022-09-16T18:01:58.307Z,26.54
2022-09-16T18:04:48.088Z,26.46
2022-09-16T18:07:36.539Z,26.49
2022-09-16T18:10:26.430Z,26.44
2022-09-16T18:13:14.903Z,26.42
2022-09-16T18:16:04.975Z,26.42
2022-09-16T18:18:54.424Z,26.41
2022-09-16T18:21:44.443Z,26.40
2022-09-16T18:24:32.936Z,26.35
2022-09-16T18:27:23.780Z,26.37
2022-09-16T18:30:13.312Z,26.50
2022-09-16T18:33:02.519Z,26.51
2022-09-16T18:35:50.903Z,26.49
2022-09-16T18:38:39.329Z,26.50
2022-09-16T18:41:30.123Z,26.60
2022-09-16T18:44:23.851Z,26.64
2022-09-16T18:47:12.578Z,26.62
2022-09-16T18:50:01.458Z,26.65
2022-09-16T18:52:50.193Z,26.73
2022-09-16T18:55:39.452Z,26.73
2022-09-16T18:58:29.119Z,26.71
2022-09-16T19:01:27.238Z,26.66
2022-09-16T19:04:16.838Z,26.61
2022-09-16T19:07:07.967Z,26.61
2022-09-16T19:09:59.892Z,26.60
2022-09-16T19:12:49.796Z,26.58
2022-09-16T19:15:38.561Z,26.56
2022-09-16T19:18:32.685Z,26.50
2022-09-16T19:21:21.982Z,26.48
2022-09-16T19:24:16.931Z,26.45
2022-09-16T19:27:05.938Z,26.48
2022-09-16T19:29:54.488Z,26.51
2022-09-16T19:32:43.304Z,26.52
2022-09-16T19:35:33.827Z,26.57
2022-09-16T19:38:23.342Z,26.65
2022-09-16T19:41:12.223Z,26.69
2022-09-16T19:44:02.075Z,26.74
2022-09-16T19:46:50.736Z,26.74
2022-09-16T19:49:39.206Z,26.76
2022-09-16T19:52:29.862Z,26.80
2022-09-16T19:55:18.556Z,26.80
2022-09-16T19:58:08.353Z,26.87
2022-09-16T20:01:00.748Z,26.93
2022-09-16T20:03:49.569Z,26.96
2022-09-16T20:06:39.874Z,26.96
2022-09-16T20:09:29.689Z,26.99
2022-09-16T20:12:18.868Z,26.99
2022-09-16T20:15:08.099Z,26.97
2022-09-16T20:17:56.975Z,26.99
2022-09-16T20:20:49.200Z,27.02
2022-09-16T20:23:39.316Z,27.02
2022-09-16T20:26:32.079Z,27.00
2022-09-16T20:29:21.062Z,26.98
2022-09-16T20:32:09.517Z,26.98
2022-09-16T20:34:57.964Z,26.99
2022-09-16T20:37:46.472Z,26.98
2022-09-16T20:40:37.483Z,27.01
2022-09-16T20:43:27.329Z,26.96
2022-09-16T20:46:17.692Z,26.86
2022-09-16T20:49:10.428Z,26.79
2022-09-16T20:52:00.753Z,26.74
2022-09-16T20:54:49.267Z,26.68
2022-09-16T20:57:37.683Z,26.65
2022-09-16T21:00:27.675Z,26.68
2022-09-16T21:03:16.233Z,26.65
2022-09-16T21:06:06.408Z,26.64
2022-09-16T21:08:55.475Z,26.58
2022-09-16T21:11:45.449Z,26.56
2022-09-16T21:14:33.864Z,26.55
2022-09-16T21:17:23.633Z,26.57
2022-09-16T21:20:12.049Z,26.56
2022-09-16T21:23:00.695Z,26.50
2022-09-16T21:25:49.167Z,26.49
2022-09-16T21:28:37.578Z,26.49
2022-09-16T21:31:28.258Z,26.43
2022-09-16T21:34:20.450Z,26.41
2022-09-16T21:37:08.899Z,26.37
2022-09-16T21:39:57.336Z,26.38
2022-09-16T21:42:46.554Z,26.40
2022-09-16T21:45:35.102Z,26.33
2022-09-16T21:48:24.975Z,26.31
2022-09-16T21:51:16.871Z,26.29
2022-09-16T21:54:07.111Z,26.28
2022-09-16T21:56:55.823Z,26.24
2022-09-16T21:59:44.613Z,26.28
2022-09-16T22:02:33.112Z,26.24
2022-09-16T22:05:22.641Z,26.25
2022-09-16T22:08:13.039Z,26.23
2022-09-16T22:11:02.619Z,26.20
2022-09-16T22:13:51.207Z,26.21
2022-09-16T22:16:40.472Z,26.17
2022-09-16T22:19:28.966Z,26.15
2022-09-16T22:22:17.429Z,26.14
2022-09-16T22:25:07.929Z,26.14
2022-09-16T22:27:56.388Z,26.10
2022-09-16T22:30:44.804Z,26.14
2022-09-16T22:33:33.294Z,26.10
2022-09-16T22:36:23.587Z,26.06
2022-09-16T22:39:14.287Z,26.09
2022-09-16T22:42:04.075Z,26.03
2022-09-16T22:44:52.524Z,26.03
2022-09-16T22:47:40.953Z,26.03
2022-09-16T22:50:29.356Z,26.03
2022-09-16T22:53:18.864Z,26.01
2022-09-16T22:56:09.276Z,26.02
2022-09-16T22:58:59.993Z,25.95
2022-09-16T23:01:48.801Z,25.97
2022-09-16T23:04:37.838Z,25.95
2022-09-16T23:07:26.350Z,25.96
2022-09-16T23:10:15.135Z,25.95
2022-09-16T23:13:03.611Z,25.98
2022-09-16T23:15:54.743Z,25.92
2022-09-16T23:18:44.058Z,25.98
2022-09-16T23:21:36.326Z,25.93
2022-09-16T23:24:24.795Z,25.93
2022-09-16T23:27:13.292Z,25.91
2022-09-16T23:30:01.747Z,25.87
2022-09-16T23:32:51.508Z,25.87
2022-09-16T23:35:39.961Z,25.87
2022-09-16T23:38:29.019Z,25.87
2022-09-16T23:41:19.613Z,25.84
2022-09-16T23:44:08.139Z,25.80
2022-09-16T23:46:57.018Z,25.79
2022-09-16T23:49:46.900Z,25.77
2022-09-16T23:52:35.622Z,25.75
2022-09-16T23:55:24.148Z,25.70
2022-09-16T23:58:13.065Z,25.71
